createdAt,value
2018-01-15T00:00:17.722Z,100723.42
2018-01-15T00:02:44.076Z,100715.69
2018-01-15T00:05:10.409Z,100716.67
2018-01-15T00:07:36.703Z,100711.51
2018-01-15T00:10:03.064Z,100712.83
2018-01-15T00:12:29.364Z,100712.80
2018-01-15T00:14:56.358Z,100698.55
2018-01-15T00:17:22.668Z,100701.79
2018-01-15T00:19:48.973Z,100697.45
2018-01-15T00:22:15.976Z,100695.73
2018-01-15T00:24:42.307Z,100695.23
2018-01-15T00:27:08.560Z,100690.04
2018-01-15T00:29:34.836Z,100700.05
2018-01-15T00:32:01.184Z,100694.08
2018-01-15T00:34:27.509Z,100695.23
2018-01-15T00:36:53.766Z,100680.48
2018-01-15T00:39:20.029Z,100686.48
2018-01-15T00:41:46.343Z,100680.20
2018-01-15T00:44:12.639Z,100681.70
2018-01-15T00:46:38.988Z,100683.86
2018-01-15T00:49:05.263Z,100685.00
2018-01-15T00:51:32.295Z,100673.67
2018-01-15T00:53:58.609Z,100679.66
2018-01-15T00:56:24.891Z,100669.93
2018-01-15T00:58:51.175Z,100672.81
2018-01-15T01:01:18.219Z,100668.73
2018-01-15T01:03:44.509Z,100672.80
2018-01-15T01:06:10.799Z,100667.50
2018-01-15T01:08:37.879Z,100663.87
2018-01-15T01:11:04.142Z,100659.57
2018-01-15T01:13:30.402Z,100661.79
2018-01-15T01:15:57.432Z,100670.55
2018-01-15T01:18:23.768Z,100671.00
2018-01-15T01:20:50.068Z,100667.83
2018-01-15T01:23:16.349Z,100675.12
2018-01-15T01:25:43.436Z,100670.63
2018-01-15T01:28:09.736Z,100670.66
2018-01-15T01:30:36.754Z,100670.45
2018-01-15T01:33:03.064Z,100675.66
2018-01-15T01:35:29.469Z,100676.48
2018-01-15T01:37:55.729Z,100668.26
2018-01-15T01:40:22.815Z,100660.72
2018-01-15T01:42:50.410Z,100658.09
2018-01-15T01:45:16.681Z,100657.72
2018-01-15T01:47:42.982Z,100655.38
2018-01-15T01:50:09.275Z,100662.39
2018-01-15T01:52:35.579Z,100651.77
2018-01-15T01:55:01.879Z,100644.47
2018-01-15T01:57:28.188Z,100643.80
2018-01-15T01:59:58.212Z,100637.56
2018-01-15T02:05:08.221Z,100633.28
2018-01-15T02:10:12.076Z,100633.30
2018-01-15T02:12:38.410Z,100629.71
2018-01-15T02:15:05.399Z,100631.48
2018-01-15T02:17:32.591Z,100634.00
2018-01-15T02:19:59.695Z,100627.49
2018-01-15T02:22:26.809Z,100619.28
2018-01-15T02:24:53.791Z,100613.20
2018-01-15T02:27:20.170Z,100606.36
2018-01-15T02:29:47.263Z,100610.73
2018-01-15T02:32:13.558Z,100610.31
2018-01-15T02:34:40.608Z,100616.91
2018-01-15T02:37:07.579Z,100610.28
2018-01-15T02:39:33.922Z,100606.41
2018-01-15T02:42:00.151Z,100609.94
2018-01-15T02:44:26.461Z,100598.66
2018-01-15T02:46:52.699Z,100604.44
2018-01-15T02:49:19.073Z,100603.77
2018-01-15T02:51:45.310Z,100606.06
2018-01-15T02:54:11.637Z,100605.38
2018-01-15T02:56:37.874Z,100596.58
2018-01-15T02:59:04.164Z,100595.12
2018-01-15T03:01:30.417Z,100588.69
2018-01-15T03:03:56.728Z,100583.18
2018-01-15T03:06:23.003Z,100579.16
2018-01-15T03:08:50.049Z,100573.91
2018-01-15T03:11:16.327Z,100565.83
2018-01-15T03:13:42.617Z,100566.69
2018-01-15T03:16:09.695Z,100555.25
2018-01-15T03:18:35.957Z,100553.98
2018-01-15T03:21:02.289Z,100555.08
2018-01-15T03:23:28.541Z,100551.16
2018-01-15T03:25:54.818Z,100546.92
2018-01-15T03:28:21.158Z,100554.43
2018-01-15T03:30:47.376Z,100545.53
2018-01-15T03:33:13.667Z,100552.70
2018-01-15T03:35:39.937Z,100544.08
2018-01-15T03:38:06.248Z,100535.87
2018-01-15T03:40:32.534Z,100538.84
2018-01-15T03:42:58.872Z,100533.34
2018-01-15T03:45:25.184Z,100528.84
2018-01-15T03:47:51.476Z,100525.09
2018-01-15T03:50:17.778Z,100532.64
2018-01-15T03:52:44.076Z,100527.09
2018-01-15T03:55:10.540Z,100520.14
2018-01-15T03:57:36.766Z,100516.62
2018-01-15T04:00:04.557Z,100503.48
2018-01-15T04:02:32.394Z,100508.71
2018-01-15T04:04:58.647Z,100516.46
2018-01-15T04:07:25.683Z,100511.50
2018-01-15T04:09:52.111Z,100514.19
2018-01-15T04:12:18.458Z,100505.49
2018-01-15T04:14:45.489Z,100495.84
2018-01-15T04:17:11.717Z,100495.34
2018-01-15T04:19:38.013Z,100488.27
2018-01-15T04:22:04.379Z,100481.59
2018-01-15T04:24:30.603Z,100475.77
2018-01-15T04:26:56.847Z,100472.96
2018-01-15T04:29:23.132Z,100482.21
2018-01-15T04:31:49.743Z,100471.42
2018-01-15T04:34:16.178Z,100463.02
2018-01-15T04:36:42.427Z,100461.41
2018-01-15T04:39:08.730Z,100465.38
2018-01-15T04:41:35.674Z,100462.98
2018-01-15T04:44:02.865Z,100454.57
2018-01-15T04:46:29.132Z,100451.80
2018-01-15T04:48:55.362Z,100456.09
2018-01-15T04:51:21.750Z,100458.94
2018-01-15T04:53:48.011Z,100460.70
2018-01-15T04:56:14.264Z,100447.37
2018-01-15T04:58:41.258Z,100453.68
2018-01-15T05:01:07.514Z,100448.08
2018-01-15T05:03:33.766Z,100437.55
2018-01-15T05:06:00.799Z,100438.80
2018-01-15T05:08:27.047Z,100437.63
2018-01-15T05:10:54.063Z,100438.62
2018-01-15T05:13:20.313Z,100437.05
2018-01-15T05:15:46.578Z,100433.99
2018-01-15T05:18:12.899Z,100432.52
2018-01-15T05:20:39.147Z,100440.77
2018-01-15T05:23:05.415Z,100438.70
2018-01-15T05:25:31.697Z,100433.59
2018-01-15T05:27:59.001Z,100425.16
2018-01-15T05:30:25.249Z,100423.95
2018-01-15T05:32:52.288Z,100415.72
2018-01-15T05:35:18.555Z,100418.47
2018-01-15T05:37:44.929Z,100403.94
2018-01-15T05:40:11.219Z,100410.80
2018-01-15T05:42:37.550Z,100412.69
2018-01-15T05:45:03.848Z,100414.98
2018-01-15T05:47:30.122Z,100404.77
2018-01-15T05:49:56.446Z,100403.16
2018-01-15T05:52:22.724Z,100397.25
2018-01-15T05:54:48.973Z,100386.28
2018-01-15T05:57:16.102Z,100387.48
2018-01-15T05:59:42.324Z,100382.51
2018-01-15T06:02:08.572Z,100379.73
2018-01-15T06:04:34.810Z,100375.16
2018-01-15T06:07:01.833Z,100384.98
2018-01-15T06:09:28.171Z,100378.63
2018-01-15T06:11:54.480Z,100380.16
2018-01-15T06:14:20.710Z,100371.00
2018-01-15T06:16:46.976Z,100378.64
2018-01-15T06:19:14.007Z,100380.59
2018-01-15T06:21:40.321Z,100379.97
2018-01-15T06:24:06.587Z,100371.31
2018-01-15T06:26:33.611Z,100371.64
2018-01-15T06:28:59.955Z,100373.48
2018-01-15T06:31:26.287Z,100373.80
2018-01-15T06:33:52.604Z,100375.59
2018-01-15T06:36:18.864Z,100372.94
2018-01-15T06:38:45.904Z,100374.63
2018-01-15T06:41:12.923Z,100376.50
2018-01-15T06:43:39.217Z,100373.53
2018-01-15T06:46:05.490Z,100373.67
2018-01-15T06:48:31.804Z,100373.62
2018-01-15T06:50:58.129Z,100368.52
2018-01-15T06:53:24.408Z,100371.44
2018-01-15T06:55:51.399Z,100370.68
2018-01-15T06:58:17.651Z,100381.73
2018-01-15T07:00:43.961Z,100371.38
2018-01-15T07:03:10.289Z,100374.69
2018-01-15T07:05:36.532Z,100372.95
2018-01-15T07:08:02.785Z,100375.25
2018-01-15T07:10:29.039Z,100384.38
2018-01-15T07:12:55.852Z,100377.27
2018-01-15T07:15:22.119Z,100378.97
2018-01-15T07:17:48.335Z,100380.36
2018-01-15T07:20:15.352Z,100370.51
2018-01-15T07:22:41.584Z,100375.91
2018-01-15T07:25:07.859Z,100363.02
2018-01-15T07:27:34.112Z,100367.55
2018-01-15T07:30:00.404Z,100372.34
2018-01-15T07:32:26.756Z,100366.95
2018-01-15T07:34:53.015Z,100369.75
2018-01-15T07:37:19.292Z,100364.58
2018-01-15T07:39:46.286Z,100361.49
2018-01-15T07:42:12.527Z,100357.09
2018-01-15T07:44:38.772Z,100358.91
2018-01-15T07:47:05.010Z,100364.83
2018-01-15T07:49:31.368Z,100359.21
2018-01-15T07:51:58.389Z,100358.48
2018-01-15T07:54:24.989Z,100355.59
2018-01-15T07:56:51.215Z,100353.45
2018-01-15T07:59:17.509Z,100354.26
2018-01-15T08:01:44.492Z,100354.28
2018-01-15T08:04:10.763Z,100353.16
2018-01-15T08:06:37.013Z,100353.88
2018-01-15T08:09:03.984Z,100354.56
2018-01-15T08:11:30.262Z,100348.73
2018-01-15T08:13:56.524Z,100335.47
2018-01-15T08:16:23.516Z,100330.77
2018-01-15T08:18:49.818Z,100328.74
2018-01-15T08:21:16.118Z,100325.66
2018-01-15T08:23:43.347Z,100324.95
2018-01-15T08:26:10.553Z,100329.09
2018-01-15T08:28:36.817Z,100312.41
2018-01-15T08:31:03.040Z,100313.92
2018-01-15T08:33:29.358Z,100311.75
2018-01-15T08:35:56.425Z,100303.56
2018-01-15T08:38:22.675Z,100310.75
2018-01-15T08:40:48.935Z,100315.14
2018-01-15T08:43:15.170Z,100314.71
2018-01-15T08:45:41.449Z,100299.72
2018-01-15T08:48:07.691Z,100300.46
2018-01-15T08:50:33.975Z,100298.98
2018-01-15T08:53:00.215Z,100296.82
2018-01-15T08:55:26.526Z,100295.16
2018-01-15T08:57:52.831Z,100287.70
2018-01-15T09:00:19.855Z,100272.49
2018-01-15T09:02:46.108Z,100281.05
2018-01-15T09:05:13.118Z,100272.97
2018-01-15T09:07:39.342Z,100278.98
2018-01-15T09:10:05.674Z,100270.91
2018-01-15T09:12:31.969Z,100264.97
2018-01-15T09:14:58.235Z,100256.32
2018-01-15T09:17:24.510Z,100257.05
2018-01-15T09:19:51.500Z,100259.10
2018-01-15T09:22:17.784Z,100250.62
2018-01-15T09:24:44.738Z,100243.16
2018-01-15T09:27:11.754Z,100253.29
2018-01-15T09:29:38.938Z,100245.59
2018-01-15T09:32:05.943Z,100239.28
2018-01-15T09:34:32.267Z,100239.42
2018-01-15T09:36:58.599Z,100232.56
2018-01-15T09:39:24.859Z,100227.21
2018-01-15T09:41:51.871Z,100221.66
2018-01-15T09:44:18.205Z,100226.55
2018-01-15T09:46:44.468Z,100221.20
2018-01-15T09:49:11.526Z,100218.28
2018-01-15T09:51:38.577Z,100217.41
2018-01-15T09:54:05.587Z,100217.11
2018-01-15T09:56:31.819Z,100212.10
2018-01-15T09:58:58.095Z,100211.92
2018-01-15T10:01:24.331Z,100209.78
2018-01-15T10:03:51.612Z,100209.77
2018-01-15T10:06:17.810Z,100204.45
2018-01-15T10:08:44.121Z,100207.58
2018-01-15T10:11:11.115Z,100199.11
2018-01-15T10:13:37.376Z,100199.03
2018-01-15T10:16:03.692Z,100198.13
2018-01-15T10:18:29.938Z,100201.48
2018-01-15T10:20:56.967Z,100190.02
2018-01-15T10:23:23.196Z,100186.98
2018-01-15T10:25:49.472Z,100174.56
2018-01-15T10:28:15.684Z,100161.42
2018-01-15T10:30:42.663Z,100164.77
2018-01-15T10:33:08.960Z,100151.84
2018-01-15T10:35:35.232Z,100160.72
2018-01-15T10:38:01.504Z,100158.11
2018-01-15T10:40:27.736Z,100155.38
2018-01-15T10:42:54.009Z,100138.08
2018-01-15T10:45:20.305Z,100135.83
2018-01-15T10:47:47.312Z,100139.41
2018-01-15T10:50:13.571Z,100135.09
2018-01-15T10:52:39.834Z,100131.76
2018-01-15T10:55:06.061Z,100122.37
2018-01-15T10:57:32.378Z,100121.39
2018-01-15T10:59:59.371Z,100120.72
2018-01-15T11:02:25.635Z,100109.75
2018-01-15T11:04:51.905Z,100098.52
2018-01-15T11:07:18.211Z,100089.75
2018-01-15T11:09:45.203Z,100088.64
2018-01-15T11:12:11.409Z,100085.70
2018-01-15T11:14:37.672Z,100071.59
2018-01-15T11:17:04.014Z,100057.98
2018-01-15T11:19:30.298Z,100059.67
2018-01-15T11:21:56.589Z,100045.13
2018-01-15T11:24:22.837Z,100038.59
2018-01-15T11:26:49.866Z,100032.91
2018-01-15T11:29:16.162Z,100017.28
2018-01-15T11:31:42.419Z,100012.70
2018-01-15T11:34:08.687Z,100005.45
2018-01-15T11:36:35.720Z,99982.99
2018-01-15T11:41:34.829Z,99984.92
2018-01-15T11:44:01.071Z,99973.53
2018-01-15T11:46:28.106Z,99962.70
2018-01-15T11:48:54.331Z,99964.94
2018-01-15T11:51:21.303Z,99971.77
2018-01-15T11:53:47.580Z,99966.02
2018-01-15T11:56:13.833Z,99959.45
2018-01-15T11:58:40.824Z,99945.25
2018-01-15T12:01:07.183Z,99949.47
2018-01-15T12:03:33.450Z,99933.78
2018-01-15T12:05:59.676Z,99923.38
2018-01-15T12:13:30.736Z,99920.77
2018-01-15T12:15:57.003Z,99900.08
2018-01-15T12:18:24.036Z,99902.59
2018-01-15T12:20:58.108Z,99896.21
2018-01-15T12:23:24.366Z,99894.12
2018-01-15T12:28:23.346Z,99885.16
2018-01-15T12:30:49.670Z,99869.98
2018-01-15T12:33:15.942Z,99865.27
2018-01-15T12:35:43.001Z,99855.64
2018-01-15T12:40:42.114Z,99841.73
2018-01-15T12:43:09.142Z,99837.28
2018-01-15T12:45:35.396Z,99820.48
2018-01-15T12:48:02.445Z,99815.05
2018-01-15T12:50:29.409Z,99816.45
2018-01-15T12:52:55.706Z,99806.45
2018-01-15T13:02:58.972Z,99784.76
2018-01-15T13:08:35.759Z,99776.59
2018-01-15T13:11:02.788Z,99760.16
2018-01-15T13:26:09.851Z,99732.80
2018-01-15T13:38:44.348Z,99714.30
2018-01-15T13:48:47.092Z,99710.33
2018-01-15T13:51:14.181Z,99718.91
2018-01-15T13:56:19.537Z,99717.49
2018-01-15T14:24:07.432Z,99673.13
2018-01-15T14:26:33.696Z,99677.14
2018-01-15T14:29:00.169Z,99657.22
2018-01-15T14:41:34.368Z,99632.97
2018-01-15T14:46:33.343Z,99614.56
2018-01-15T14:48:59.601Z,99606.47
2018-01-15T14:51:26.624Z,99606.72
2018-01-15T14:58:57.739Z,99602.95
2018-01-15T15:01:24.268Z,99586.69
2018-01-15T15:06:23.510Z,99580.41
2018-01-15T15:08:49.940Z,99569.53
2018-01-15T15:13:48.633Z,99555.22
2018-01-15T15:18:47.843Z,99549.45
2018-01-15T15:21:15.081Z,99547.52
2018-01-15T15:23:42.119Z,99539.03
2018-01-15T15:26:08.517Z,99530.34
2018-01-15T15:28:34.813Z,99523.97
2018-01-15T15:31:01.102Z,99516.05
2018-01-15T15:33:27.454Z,99510.98
2018-01-15T15:38:27.300Z,99500.42
2018-01-15T15:48:30.343Z,99489.89
2018-01-15T15:53:29.399Z,99484.22
2018-01-15T15:58:27.900Z,99469.56
2018-01-15T16:03:26.226Z,99466.52
2018-01-15T16:08:24.519Z,99454.17
2018-01-15T16:10:50.881Z,99440.06
2018-01-15T16:15:49.316Z,99425.17
2018-01-15T16:18:15.619Z,99415.27
2018-01-15T16:35:55.640Z,99386.03
2018-01-15T16:38:22.698Z,99375.68
2018-01-15T16:40:50.636Z,99372.71
2018-01-15T16:43:29.907Z,99366.20
2018-01-15T16:48:29.546Z,99351.90
2018-01-15T16:53:29.495Z,99347.08
2018-01-15T17:03:44.758Z,99328.77
2018-01-15T17:06:12.294Z,99325.89
2018-01-15T17:21:37.449Z,99299.26
2018-01-15T17:29:08.712Z,99295.82
2018-01-15T17:34:08.491Z,99286.78
2018-01-15T17:36:35.380Z,99280.88
2018-01-15T17:46:49.196Z,99247.59
2018-01-15T17:59:09.257Z,99233.06
2018-01-15T18:06:41.872Z,99210.61
2018-01-15T18:09:09.205Z,99210.65
2018-01-15T18:11:37.562Z,99203.52
2018-01-15T18:16:37.531Z,99195.03
2018-01-15T18:19:05.999Z,99194.69
2018-01-15T18:42:00.440Z,99166.44
2018-01-15T18:47:15.609Z,99154.49
2018-01-15T18:49:42.717Z,99158.57
2018-01-15T18:54:44.227Z,99159.66
2018-01-15T18:57:16.555Z,99159.83
2018-01-15T19:04:56.332Z,99135.27
2018-01-15T19:09:55.548Z,99123.52
2018-01-15T19:20:00.467Z,99113.23
2018-01-15T19:22:27.639Z,99105.36
2018-01-15T19:24:55.397Z,99112.74
2018-01-15T19:29:56.598Z,99088.39
2018-01-15T19:32:23.388Z,99092.69
2018-01-15T19:40:04.929Z,99091.97
2018-01-15T19:42:33.880Z,99103.91
2018-01-15T19:50:29.044Z,99091.07
2018-01-15T19:53:04.158Z,99086.20
2018-01-15T19:55:37.377Z,99074.20
2018-01-15T20:11:22.431Z,99017.73
2018-01-15T20:13:49.791Z,99000.48
2018-01-15T20:18:50.475Z,98984.41
2018-01-15T20:21:17.988Z,98989.23
2018-01-15T20:26:28.200Z,98985.01
2018-01-15T20:31:31.556Z,98967.46
2018-01-15T20:33:59.216Z,98970.66
2018-01-15T20:36:26.869Z,98954.48
2018-01-15T20:38:54.767Z,98957.98
2018-01-15T20:41:21.820Z,98946.00
2018-01-15T20:54:03.169Z,98927.47
2018-01-15T20:56:31.029Z,98900.18
2018-01-15T20:58:58.613Z,98904.06
2018-01-15T21:04:07.925Z,98896.65
2018-01-15T21:11:41.270Z,98873.52
2018-01-15T21:14:09.236Z,98873.25
2018-01-15T21:26:48.716Z,98850.02
2018-01-15T21:29:16.814Z,98833.44
2018-01-15T21:34:19.818Z,98819.95
2018-01-15T21:36:47.316Z,98808.52
2018-01-15T21:39:14.760Z,98804.77
2018-01-15T21:46:47.761Z,98769.81
2018-01-15T21:49:15.375Z,98773.85
2018-01-15T21:51:44.413Z,98765.16
2018-01-15T21:56:47.208Z,98750.87
2018-01-15T22:04:20.272Z,98728.96
2018-01-15T22:06:47.459Z,98705.78
2018-01-15T22:09:16.414Z,98692.67
2018-01-15T22:27:05.097Z,98645.19
2018-01-15T22:29:32.874Z,98644.27
2018-01-15T22:34:35.392Z,98636.47
2018-01-15T22:37:03.252Z,98636.09
2018-01-15T22:49:52.647Z,98600.92
2018-01-15T22:57:25.883Z,98583.87
2018-01-15T22:59:54.600Z,98573.73
2018-01-15T23:02:21.536Z,98572.10
2018-01-15T23:09:55.384Z,98532.33
2018-01-15T23:20:02.622Z,98506.33
2018-01-15T23:25:01.743Z,98478.87
2018-01-15T23:27:32.756Z,98447.95
2018-01-15T23:29:59.952Z,98460.73
2018-01-15T23:34:58.142Z,98440.77
2018-01-15T23:39:56.414Z,98435.69
2018-01-15T23:47:28.204Z,98430.41
2018-01-15T23:49:57.639Z,98433.09
2018-01-15T23:52:36.030Z,98413.27
2018-01-15T23:57:36.163Z,98401.22
